Time;durP1;ratioP1;P1;durP2;ratioP2;P2;SDS_P1;SDS_P2;PMS_P1;PMS_P2;Temp;Humidity;BMP_temperature;BMP_pressure;BME280_temperature;BME280_humidity;BME280_pressure;Samples;Min_cycle;Max_cycle;Signal;HPM_P1;HPM_P2
2022/09/07 00:00:15;;;;;;;7.05;3.08;;;;;;;18.88;50.73;99906.00;5029891;28;20029;-73
2022/09/07 00:02:41;;;;;;;3.67;2.53;;;;;;;18.81;50.82;99903.88;5030974;28;20033;-73
2022/09/07 00:05:07;;;;;;;3.47;2.67;;;;;;;18.83;51.02;99906.34;5011198;28;20183;-73
2022/09/07 00:07:32;;;;;;;10.98;2.75;;;;;;;18.70;51.61;99905.72;5029164;28;20033;-73
2022/09/07 00:09:58;;;;;;;10.85;2.90;;;;;;;18.62;51.60;99899.13;5030465;28;20056;-73
2022/09/07 00:12:23;;;;;;;4.82;3.15;;;;;;;18.53;52.32;99902.22;5030894;28;20032;-73
2022/09/07 00:14:49;;;;;;;4.35;2.50;;;;;;;18.43;52.00;99892.34;5029516;28;20029;-72
2022/09/07 00:17:14;;;;;;;8.40;3.03;;;;;;;18.34;52.46;99906.78;5030929;28;20086;-72
2022/09/07 00:19:40;;;;;;;3.38;2.70;;;;;;;18.46;52.17;99910.59;5013233;28;20026;-73
2022/09/07 00:22:06;;;;;;;3.97;2.65;;;;;;;18.49;51.75;99907.03;5011358;28;20025;-72
2022/09/07 00:24:31;;;;;;;4.03;2.90;;;;;;;18.37;52.30;99908.84;5030036;28;20526;-72
2022/09/07 00:26:57;;;;;;;3.25;2.65;;;;;;;18.42;52.66;99912.53;5030940;28;20052;-72
2022/09/07 00:29:23;;;;;;;4.47;3.13;;;;;;;18.60;52.16;99913.69;5013519;28;20110;-72
2022/09/07 00:31:48;;;;;;;3.90;2.70;;;;;;;18.49;52.03;99904.19;5031753;28;20116;-73
2022/09/07 00:34:13;;;;;;;3.55;2.83;;;;;;;18.29;52.60;99911.94;5029894;28;20030;-73
2022/09/07 00:36:39;;;;;;;5.22;2.83;;;;;;;18.32;52.85;99911.97;5030575;28;20060;-72
2022/09/07 00:39:05;;;;;;;5.57;3.78;;;;;;;18.14;53.27;99908.03;5028384;28;20469;-73
2022/09/07 00:41:31;;;;;;;8.18;3.10;;;;;;;17.91;53.84;99909.56;5028360;28;20029;-72
2022/09/07 00:44:18;;;;;;;4.15;2.88;;;;;;;17.95;53.72;99913.31;5028430;28;20516;-73
2022/09/07 00:46:45;;;;;;;3.78;2.75;;;;;;;18.13;53.62;99920.53;5021509;28;20112;-72
2022/09/07 00:49:15;;;;;;;4.38;2.95;;;;;;;18.13;54.11;99918.50;5032191;28;20030;-73
2022/09/07 00:51:49;;;;;;;4.78;2.80;;;;;;;18.17;53.84;99921.41;5034886;28;20022;-72
2022/09/07 00:54:20;;;;;;;4.78;2.95;;;;;;;18.16;53.30;99922.59;5015900;28;20033;-73
2022/09/07 00:56:49;;;;;;;4.95;2.63;;;;;;;18.20;53.15;99915.00;5033244;28;20615;-73
2022/09/07 00:59:18;;;;;;;6.18;2.80;;;;;;;18.37;53.06;99922.19;5014257;28;20029;-72
2022/09/07 01:01:44;;;;;;;6.30;3.00;;;;;;;18.21;53.21;99913.78;5015096;28;20092;-73
2022/09/07 01:04:10;;;;;;;5.07;2.58;;;;;;;18.10;53.45;99908.78;5027871;28;20488;-73
2022/09/07 01:06:38;;;;;;;3.85;2.95;;;;;;;17.99;53.84;99907.72;5032770;28;20030;-73
2022/09/07 01:09:09;;;;;;;6.00;3.33;;;;;;;17.97;54.08;99915.75;5015680;28;20037;-73
2022/09/07 01:11:34;;;;;;;4.75;2.63;;;;;;;17.95;54.03;99913.31;5034804;28;20028;-72
2022/09/07 01:14:02;;;;;;;7.72;2.88;;;;;;;18.00;54.65;99909.38;5032432;28;20353;-73
2022/09/07 01:16:46;;;;;;;3.75;2.45;;;;;;;18.07;53.89;99915.16;5016957;28;20048;-72
2022/09/07 01:19:30;;;;;;;7.75;3.50;;;;;;;18.03;53.92;99913.47;5012896;28;20060;-73
2022/09/07 01:22:05;;;;;;;4.03;2.97;;;;;;;17.92;54.99;99911.25;5027594;28;20026;-72
2022/09/07 01:24:42;;;;;;;7.00;3.60;;;;;;;17.89;54.83;99914.78;5016660;28;20446;-72
2022/09/07 01:27:32;;;;;;;7.07;3.30;;;;;;;17.86;55.28;99911.88;5032705;28;20108;-72
2022/09/07 01:30:01;;;;;;;3.53;3.20;;;;;;;17.63;55.76;99915.50;5007041;28;20105;-72
2022/09/07 01:32:51;;;;;;;7.17;3.00;;;;;;;17.53;56.41;99903.59;5029691;28;20098;-72
2022/09/07 01:35:42;;;;;;;4.32;3.25;;;;;;;17.53;56.44;99909.25;5033474;28;20961;-72
2022/09/07 01:38:22;;;;;;;7.80;3.35;;;;;;;17.44;56.68;99903.00;5014898;28;20025;-72
2022/09/07 01:41:03;;;;;;;4.15;3.22;;;;;;;17.50;56.28;99912.81;5033563;28;20041;-72
2022/09/07 01:44:13;;;;;;;7.85;3.60;;;;;;;17.37;57.19;99905.66;5007435;28;20072;-72
2022/09/07 01:47:00;;;;;;;8.07;3.40;;;;;;;17.41;57.55;99909.41;5008906;28;20041;-72
2022/09/07 01:49:37;;;;;;;5.90;3.55;;;;;;;17.50;57.33;99910.00;5013629;28;20038;-72
2022/09/07 01:52:12;;;;;;;6.88;3.63;;;;;;;17.52;57.95;99915.25;5024103;28;20021;-72
2022/09/07 01:54:46;;;;;;;8.10;3.33;;;;;;;17.45;57.56;99904.63;5015810;28;20484;-72
2022/09/07 01:57:17;;;;;;;7.13;3.65;;;;;;;17.52;57.04;99912.44;5032204;28;20476;-72
2022/09/07 01:59:49;;;;;;;7.90;3.40;;;;;;;17.52;56.92;99915.25;5032192;28;20083;-73
2022/09/07 02:02:28;;;;;;;3.80;3.10;;;;;;;17.57;56.43;99919.81;5025564;28;20036;-72
2022/09/07 02:05:06;;;;;;;7.32;3.72;;;;;;;17.45;57.03;99915.13;5033204;28;20087;-72
2022/09/07 02:07:38;;;;;;;4.20;3.33;;;;;;;17.27;57.71;99907.06;5030600;28;20087;-73
2022/09/07 02:10:27;;;;;;;9.38;3.47;;;;;;;17.25;57.18;99904.63;5032456;28;20052;-72
2022/09/07 02:13:19;;;;;;;10.75;3.65;;;;;;;17.24;57.99;99902.97;5015195;28;20477;-72
2022/09/07 02:15:54;;;;;;;6.35;3.22;;;;;;;17.20;59.11;99907.72;5033194;28;20098;-72
2022/09/07 02:18:23;;;;;;;6.78;4.13;;;;;;;17.08;59.77;99910.69;5032959;28;20021;-72
2022/09/07 02:20:53;;;;;;;8.88;4.22;;;;;;;17.02;60.03;99889.56;5033110;28;20498;-72
2022/09/07 02:23:27;;;;;;;7.40;3.92;;;;;;;16.91;60.80;99895.75;5014280;28;20084;-72
2022/09/07 02:25:59;;;;;;;10.18;4.38;;;;;;;16.79;61.06;99898.69;5032727;28;20477;-72
2022/09/07 02:28:31;;;;;;;31.88;5.32;;;;;;;16.66;61.29;99903.63;5032821;28;20522;-72
2022/09/07 02:30:57;;;;;;;11.40;4.60;;;;;;;16.58;61.00;99905.47;5031980;28;20061;-72
2022/09/07 02:33:23;;;;;;;5.53;3.67;;;;;;;16.82;60.50;99897.97;5032409;28;20055;-72
2022/09/07 02:35:50;;;;;;;21.70;4.53;;;;;;;16.80;60.19;99900.34;5033407;28;20021;-72
2022/09/07 02:38:16;;;;;;;22.33;4.53;;;;;;;16.64;61.10;99897.53;5026739;28;20021;-72
2022/09/07 02:40:42;;;;;;;17.50;4.57;;;;;;;16.56;61.02;99888.88;5032495;28;20039;-73
2022/09/07 02:43:10;;;;;;;4.40;3.53;;;;;;;16.36;61.64;99902.09;5014297;28;20046;-72
2022/09/07 02:45:56;;;;;;;5.70;3.83;;;;;;;16.39;61.42;99904.16;5029757;28;20040;-72
2022/09/07 02:48:33;;;;;;;6.45;4.03;;;;;;;16.31;61.64;99908.03;4974035;28;20041;-72
2022/09/07 02:51:26;;;;;;;5.35;3.80;;;;;;;16.03;61.86;99910.91;5014650;28;20167;-72
2022/09/07 02:54:21;;;;;;;7.22;4.30;;;;;;;15.51;63.31;99905.81;5029172;28;20033;-72
2022/09/07 02:56:57;;;;;;;6.55;3.65;;;;;;;15.30;64.02;99908.81;5020130;28;20060;-72
2022/09/07 02:59:32;;;;;;;6.43;4.13;;;;;;;15.14;64.19;99898.31;5028173;28;20013;-72
2022/09/07 03:02:29;;;;;;;8.60;4.05;;;;;;;15.43;63.81;99906.78;5013396;28;20108;-72
2022/09/07 03:05:19;;;;;;;7.07;3.72;;;;;;;15.07;64.77;99912.16;5030599;28;20021;-73
2022/09/07 03:08:00;;;;;;;6.88;4.78;;;;;;;14.49;66.73;99912.28;5030583;28;20087;-73
2022/09/07 03:10:27;;;;;;;6.65;4.47;;;;;;;14.38;67.33;99909.94;5014010;28;20033;-73
2022/09/07 03:12:52;;;;;;;7.28;4.93;;;;;;;14.43;67.53;99920.94;5032096;28;20155;-72
2022/09/07 03:15:20;;;;;;;15.35;5.72;;;;;;;14.30;68.59;99916.47;5031440;28;20106;-72
2022/09/07 03:17:46;;;;;;;6.32;5.07;;;;;;;13.85;71.21;99918.16;5029953;28;20030;-72
2022/09/07 03:20:12;;;;;;;6.03;5.43;;;;;;;13.77;71.83;99911.44;5014689;28;20064;-72
2022/09/07 03:22:38;;;;;;;6.68;5.32;;;;;;;13.59;73.12;99910.78;5030507;28;20465;-72
2022/09/07 03:25:04;;;;;;;10.32;5.65;;;;;;;13.55;73.39;99909.81;5032103;28;20084;-72
2022/09/07 03:27:30;;;;;;;17.17;6.10;;;;;;;13.54;73.86;99917.44;5031562;28;20026;-72
2022/09/07 03:29:57;;;;;;;6.45;5.85;;;;;;;13.45;74.12;99914.72;5030242;28;20034;-72
2022/09/07 03:32:22;;;;;;;8.88;6.93;;;;;;;13.48;74.46;99918.81;5030751;28;20040;-72
2022/09/07 03:34:48;;;;;;;14.25;6.93;;;;;;;13.47;74.74;99919.97;5031659;28;20033;-72
2022/09/07 03:37:14;;;;;;;12.48;6.22;;;;;;;13.27;75.95;99919.63;5023617;28;20061;-72
2022/09/07 03:39:39;;;;;;;16.20;7.35;;;;;;;13.23;76.16;99910.22;5031553;28;20088;-72
2022/09/07 03:42:05;;;;;;;14.27;7.25;;;;;;;13.47;75.25;99923.63;5026195;28;20045;-72
2022/09/07 03:44:31;;;;;;;19.42;7.38;;;;;;;13.56;74.84;99929.16;5011196;28;20057;-72
2022/09/07 03:46:56;;;;;;;8.38;6.40;;;;;;;13.58;74.43;99934.44;5025324;28;20048;-73
2022/09/07 03:49:22;;;;;;;12.23;6.63;;;;;;;13.71;73.57;99936.13;5010281;28;20042;-72
2022/09/07 03:51:47;;;;;;;11.85;5.78;;;;;;;13.59;73.47;99930.47;5026293;28;20500;-72
2022/09/07 03:54:13;;;;;;;8.13;6.45;;;;;;;13.85;72.57;99935.81;5010408;28;20041;-72
2022/09/07 03:56:39;;;;;;;31.38;7.53;;;;;;;14.02;72.18;99950.88;5009409;28;20048;-72
2022/09/07 03:59:04;;;;;;;12.00;6.57;;;;;;;13.76;72.83;99943.53;5010930;28;20030;-72
2022/09/07 04:01:30;;;;;;;18.75;6.57;;;;;;;13.72;73.41;99951.00;5011229;28;20034;-72
2022/09/07 04:03:58;;;;;;;13.80;6.68;;;;;;;13.73;73.57;99950.66;5008595;28;20432;-73
2022/09/07 04:06:24;;;;;;;12.80;6.57;;;;;;;13.84;73.43;99953.06;5009255;28;20112;-72
2022/09/07 04:08:49;;;;;;;10.57;6.45;;;;;;;14.01;72.78;99946.44;5011194;28;20038;-72
2022/09/07 04:11:17;;;;;;;11.05;6.28;;;;;;;14.09;72.70;99951.13;5011265;28;20405;-73
2022/09/07 04:13:44;;;;;;;13.57;8.45;;;;;;;13.69;74.57;99944.06;5025704;28;20100;-72
2022/09/07 04:16:18;;;;;;;13.20;7.32;;;;;;;13.47;75.93;99943.28;5009752;28;20160;-73
2022/09/07 04:18:43;;;;;;;7.75;6.90;;;;;;;13.69;76.16;99951.69;5022870;28;20022;-74
2022/09/07 04:21:10;;;;;;;15.13;7.80;;;;;;;13.85;75.21;99958.31;5011561;28;20524;-74
2022/09/07 04:23:38;;;;;;;12.23;6.47;;;;;;;14.04;74.42;99948.53;5011201;28;20508;-73
2022/09/07 04:26:03;;;;;;;15.45;7.45;;;;;;;13.69;75.71;99962.94;5012239;28;20112;-73
2022/09/07 04:28:29;;;;;;;14.20;8.40;;;;;;;13.59;76.74;99947.31;5013005;28;20117;-72
2022/09/07 04:30:59;;;;;;;19.77;9.38;;;;;;;13.69;76.39;99949.69;5029194;28;20394;-72
2022/09/07 04:33:24;;;;;;;9.98;7.00;;;;;;;13.69;76.79;99960.94;5013167;28;20030;-71
2022/09/07 04:35:50;;;;;;;13.77;8.02;;;;;;;13.62;77.89;99967.09;5014163;28;20056;-73
2022/09/07 04:38:15;;;;;;;13.10;8.07;;;;;;;13.44;78.82;99971.25;5008842;28;20465;-74
2022/09/07 04:40:41;;;;;;;11.85;7.88;;;;;;;13.35;79.23;99960.03;5011259;28;20038;-74
2022/09/07 04:43:08;;;;;;;16.65;8.13;;;;;;;13.45;79.43;99964.44;5011066;28;20057;-74
2022/09/07 04:45:37;;;;;;;13.50;8.40;;;;;;;13.61;79.05;99965.47;5008140;28;20036;-74
2022/09/07 04:48:03;;;;;;;10.25;8.40;;;;;;;13.76;78.48;99966.03;5008283;28;20076;-74
2022/09/07 04:50:29;;;;;;;10.07;7.45;;;;;;;13.88;77.65;99963.28;5007013;28;20049;-77
2022/09/07 04:52:54;;;;;;;13.40;7.20;;;;;;;13.90;77.44;99960.09;5013579;28;20033;-75
2022/09/07 04:55:19;;;;;;;10.80;7.65;;;;;;;13.93;77.08;99964.22;5011319;28;20026;-73
2022/09/07 04:57:48;;;;;;;11.07;7.10;;;;;;;14.02;76.89;99962.13;5012799;28;20034;-76
2022/09/07 05:00:14;;;;;;;17.48;8.18;;;;;;;14.17;76.96;99957.81;5010479;28;20029;-75
2022/09/07 05:02:39;;;;;;;10.80;6.40;;;;;;;14.38;75.83;99959.75;5028931;28;20096;-74
2022/09/07 05:05:05;;;;;;;13.57;7.05;;;;;;;14.48;75.75;99964.94;5026111;28;20049;-75
2022/09/07 05:07:31;;;;;;;15.10;6.38;;;;;;;14.56;75.26;99975.28;5002388;28;20112;-75
2022/09/07 05:09:56;;;;;;;7.00;6.30;;;;;;;14.55;74.81;99967.16;5012654;28;20041;-74
2022/09/07 05:12:22;;;;;;;7.13;6.05;;;;;;;14.35;75.09;99968.91;5013265;28;20381;-75
2022/09/07 05:14:48;;;;;;;8.07;5.97;;;;;;;14.58;75.25;99970.09;5012168;28;20492;-73
2022/09/07 05:17:13;;;;;;;9.05;6.53;;;;;;;14.59;74.56;99980.19;5012732;28;20152;-74
2022/09/07 05:19:39;;;;;;;7.28;6.57;;;;;;;14.65;73.95;99977.97;5011262;28;20037;-73
2022/09/07 05:22:05;;;;;;;11.55;7.18;;;;;;;14.91;74.16;99981.66;5013160;28;20049;-72
2022/09/07 05:24:32;;;;;;;10.35;6.60;;;;;;;15.07;73.61;99982.59;5011873;28;20038;-72
2022/09/07 05:27:00;;;;;;;17.75;7.72;;;;;;;15.16;72.23;99983.28;5012345;28;20091;-72
2022/09/07 05:29:26;;;;;;;17.55;6.93;;;;;;;15.02;72.12;99983.66;5026236;28;20030;-73
2022/09/07 05:31:52;;;;;;;11.43;6.03;;;;;;;15.15;71.51;99980.81;5026132;28;20034;-73
2022/09/07 05:34:17;;;;;;;17.08;6.50;;;;;;;15.18;71.12;99980.09;5010033;28;20066;-73
2022/09/07 05:36:43;;;;;;;11.50;7.03;;;;;;;15.41;70.06;99982.41;5010734;28;20084;-76
2022/09/07 05:39:08;;;;;;;16.73;6.13;;;;;;;15.60;68.71;99978.97;5012552;28;20076;-73
2022/09/07 05:41:34;;;;;;;8.80;6.07;;;;;;;15.48;68.56;99968.56;5013143;28;20033;-73
2022/09/07 05:44:00;;;;;;;6.50;4.93;;;;;;;15.77;68.14;99977.03;5011805;28;20555;-74
2022/09/07 05:46:25;;;;;;;8.27;4.80;;;;;;;15.82;66.57;99979.59;5011985;28;20103;-73
2022/09/07 05:48:51;;;;;;;12.70;5.20;;;;;;;15.83;65.21;99973.59;5012297;28;20034;-74
2022/09/07 05:51:16;;;;;;;7.35;4.75;;;;;;;15.66;64.84;99988.00;5012181;28;20516;-73
2022/09/07 05:53:44;;;;;;;4.55;3.83;;;;;;;15.67;64.40;99978.34;5009790;28;20029;-73
2022/09/07 05:56:10;;;;;;;5.57;4.85;;;;;;;15.88;65.22;99968.88;5011278;28;20507;-74
2022/09/07 05:58:36;;;;;;;7.90;3.95;;;;;;;15.88;63.75;99966.06;5011642;28;20083;-76
2022/09/07 06:01:11;;;;;;;4.13;3.38;;;;;;;16.21;63.39;99974.25;5010946;28;20029;-76
2022/09/07 06:03:40;;;;;;;4.47;3.90;;;;;;;16.54;62.85;99975.16;5010973;28;20022;-77
2022/09/07 06:06:15;;;;;;;4.57;4.18;;;;;;;16.52;61.37;99966.19;5010979;28;20032;-78
2022/09/07 06:08:48;;;;;;;7.25;4.13;;;;;;;16.86;61.58;99965.84;5012859;28;20033;-76
2022/09/07 06:11:17;;;;;;;4.88;3.78;;;;;;;17.14;60.48;99965.75;5010115;28;20028;-76
2022/09/07 06:13:43;;;;;;;5.72;3.30;;;;;;;17.28;59.04;99958.78;5010393;28;20022;-76
2022/09/07 06:16:10;;;;;;;9.23;3.70;;;;;;;17.37;59.18;99962.19;5012966;28;20026;-76
2022/09/07 06:18:41;;;;;;;8.23;3.80;;;;;;;17.53;58.48;99962.16;4997571;28;20018;-76
2022/09/07 06:21:13;;;;;;;5.28;3.83;;;;;;;17.77;58.53;99963.88;5013150;28;20045;-75
2022/09/07 06:23:40;;;;;;;7.07;3.30;;;;;;;17.63;57.79;99957.94;5011147;28;20121;-75
2022/09/07 06:26:07;;;;;;;14.48;3.45;;;;;;;17.86;57.00;99955.16;5012064;28;20109;-75
2022/09/07 06:28:38;;;;;;;8.38;3.65;;;;;;;18.05;56.76;99967.72;5022486;28;20498;-76
2022/09/07 06:31:09;;;;;;;9.45;4.32;;;;;;;18.21;55.94;99965.59;5010295;28;20057;-76
2022/09/07 06:33:35;;;;;;;7.72;2.92;;;;;;;18.48;56.40;99971.31;5008179;28;20056;-76
2022/09/07 06:36:04;;;;;;;5.05;3.47;;;;;;;18.41;55.72;99957.06;5010790;28;20026;-75
2022/09/07 06:38:32;;;;;;;3.50;3.10;;;;;;;18.69;55.98;99969.25;5004195;28;20109;-76
2022/09/07 06:41:10;;;;;;;4.25;3.08;;;;;;;18.78;55.35;99955.66;5008282;28;20116;-76
2022/09/07 06:43:36;;;;;;;5.85;3.10;;;;;;;18.95;53.80;99962.81;5024109;28;20528;-74
2022/09/07 06:46:01;;;;;;;7.15;3.22;;;;;;;18.67;54.04;99981.78;5024058;28;20034;-74
2022/09/07 06:48:28;;;;;;;3.22;2.88;;;;;;;18.67;55.19;99969.63;5011255;28;20061;-74
2022/09/07 06:50:58;;;;;;;5.75;3.20;;;;;;;19.07;54.64;99976.78;5022115;28;20025;-74
2022/09/07 06:53:25;;;;;;;6.97;4.00;;;;;;;18.87;53.69;99978.88;5030427;28;20021;-74
2022/09/07 06:55:51;;;;;;;6.55;3.45;;;;;;;19.07;54.46;99976.00;5030853;28;20022;-74
2022/09/07 06:58:17;;;;;;;3.88;2.92;;;;;;;18.46;53.61;99972.88;5014071;28;20029;-78
2022/09/07 07:00:43;;;;;;;5.72;3.17;;;;;;;18.42;54.28;99984.19;5027822;28;20075;-79
2022/09/07 07:03:09;;;;;;;6.15;3.53;;;;;;;18.78;54.47;99981.97;5010296;28;20026;-79
2022/09/07 07:05:34;;;;;;;3.72;3.15;;;;;;;19.14;53.55;99981.75;5023308;28;20133;-78
2022/09/07 07:08:00;;;;;;;14.85;4.22;;;;;;;19.24;53.02;99966.09;5029367;28;20033;-79
2022/09/07 07:10:26;;;;;;;17.02;4.97;;;;;;;19.38;52.57;99962.66;5032167;28;20083;-79
2022/09/07 07:12:55;;;;;;;11.90;3.83;;;;;;;19.23;52.68;99970.13;5026521;28;20041;-78
2022/09/07 07:15:25;;;;;;;5.53;3.17;;;;;;;19.02;52.39;99973.47;5020772;28;20014;-79
2022/09/07 07:17:51;;;;;;;7.82;3.13;;;;;;;19.21;52.23;99967.69;5024051;28;20116;-78
2022/09/07 07:20:17;;;;;;;4.03;3.00;;;;;;;19.59;51.86;99975.50;5027040;28;20104;-78
2022/09/07 07:22:42;;;;;;;6.28;3.20;;;;;;;19.89;51.73;99963.31;5004584;28;20026;-78
2022/09/07 07:25:08;;;;;;;7.95;2.65;;;;;;;19.68;51.45;99964.69;5030334;28;20104;-78
2022/09/07 07:27:33;;;;;;;8.07;3.05;;;;;;;19.68;51.22;99964.69;5013369;28;20069;-78
2022/09/07 07:29:59;;;;;;;8.18;4.10;;;;;;;19.74;51.02;99970.84;5030248;28;20092;-75
2022/09/07 07:32:24;;;;;;;5.28;3.28;;;;;;;19.73;51.04;99977.69;5030573;28;20468;-74
2022/09/07 07:34:50;;;;;;;32.65;4.20;;;;;;;20.06;51.10;99978.94;5031127;28;20389;-75
2022/09/07 07:37:16;;;;;;;4.75;2.90;;;;;;;20.10;50.25;99974.16;5031602;28;20022;-74
2022/09/07 07:39:41;;;;;;;3.78;2.97;;;;;;;20.40;49.91;99975.28;5014153;28;20052;-79
2022/09/07 07:42:07;;;;;;;9.25;3.20;;;;;;;20.69;49.20;99967.81;5030177;28;20558;-77
2022/09/07 07:44:33;;;;;;;6.90;3.70;;;;;;;20.87;48.04;99968.00;5030539;28;20029;-76
2022/09/07 07:46:58;;;;;;;6.95;3.42;;;;;;;20.89;48.54;99970.44;5010878;28;20091;-77
2022/09/07 07:49:24;;;;;;;6.35;3.17;;;;;;;20.76;48.29;99967.09;5031185;28;20033;-78
2022/09/07 07:51:53;;;;;;;7.93;3.20;;;;;;;20.88;48.82;99972.50;5026059;28;20029;-75
2022/09/07 07:54:19;;;;;;;8.20;3.22;;;;;;;20.88;48.63;99969.66;5030052;28;20520;-75
2022/09/07 07:56:44;;;;;;;10.50;3.33;;;;;;;20.54;49.46;99975.41;5029593;28;20036;-76
2022/09/07 07:59:10;;;;;;;3.47;3.13;;;;;;;20.48;49.40;99976.97;5028049;28;20454;-75
2022/09/07 08:01:35;;;;;;;6.88;3.28;;;;;;;21.12;49.25;99975.09;5012645;28;20043;-75
2022/09/07 08:04:01;;;;;;;9.35;3.03;;;;;;;21.38;48.78;99974.06;5030692;28;20025;-75
2022/09/07 08:06:27;;;;;;;4.85;3.17;;;;;;;21.63;47.25;99961.16;5007380;28;20477;-76
2022/09/07 08:08:54;;;;;;;3.38;3.00;;;;;;;21.48;46.76;99966.78;5029993;28;20437;-75
2022/09/07 08:11:20;;;;;;;5.10;3.00;;;;;;;20.73;48.32;99962.16;5024274;28;20057;-75
2022/09/07 08:13:50;;;;;;;6.05;3.08;;;;;;;21.21;48.73;99972.72;5015412;28;20037;-75
2022/09/07 08:16:16;;;;;;;;;;;;;;;21.64;48.49;99963.63;5010837;28;20040;-75
2022/09/07 08:18:42;;;;;;;7.10;3.33;;;;;;;21.86;46.83;99970.25;5006715;28;20342;-76
2022/09/07 08:21:14;;;;;;;4.68;3.28;;;;;;;21.94;46.73;99973.94;5001546;28;20033;-75
2022/09/07 08:23:40;;;;;;;10.85;3.33;;;;;;;22.04;46.63;99965.84;5024558;28;20044;-77
2022/09/07 08:26:07;;;;;;;4.07;2.78;;;;;;;22.13;46.37;99974.81;5027184;28;20040;-74
2022/09/07 08:28:39;;;;;;;6.47;3.15;;;;;;;22.17;45.63;99975.63;5024022;28;20041;-73
2022/09/07 08:31:10;;;;;;;9.68;3.95;;;;;;;22.02;45.87;99969.91;5029813;28;20459;-73
2022/09/07 08:33:36;;;;;;;8.25;3.58;;;;;;;21.86;46.01;99963.75;5026873;28;20412;-75
2022/09/07 08:36:06;;;;;;;18.67;4.63;;;;;;;21.87;47.52;99966.19;5025963;28;20061;-73
2022/09/07 08:38:33;;;;;;;8.60;3.37;;;;;;;22.26;45.31;99952.47;5011288;28;20425;-74
2022/09/07 08:41:00;;;;;;;8.50;4.70;;;;;;;21.66;45.64;99951.81;5021875;28;20032;-76
2022/09/07 08:43:47;;;;;;;11.05;4.80;;;;;;;22.00;45.40;99958.09;5022831;28;20127;-77
2022/09/07 08:46:37;;;;;;;8.05;3.97;;;;;;;22.19;46.04;99949.59;5012728;28;20048;-76
2022/09/07 08:49:12;;;;;;;4.75;3.88;;;;;;;21.98;44.74;99948.31;5029470;28;20473;-77
2022/09/07 08:51:46;;;;;;;3.47;3.17;;;;;;;22.08;45.81;99923.94;5019973;28;20038;-81
2022/09/07 08:54:15;;;;;;;6.60;3.75;;;;;;;22.21;43.99;99942.31;5006298;28;20492;-77
2022/09/07 08:56:45;;;;;;;6.40;3.90;;;;;;;22.65;44.90;99931.78;5012651;28;20034;-80
2022/09/07 08:59:42;;;;;;;6.00;3.00;;;;;;;22.89;43.85;99935.03;5021157;28;20030;-79
2022/09/07 09:02:13;;;;;;;4.78;3.40;;;;;;;22.07;44.48;99928.84;5004432;28;20098;-79
2022/09/07 09:04:41;;;;;;;11.95;3.63;;;;;;;22.57;43.33;99924.44;5026134;28;20032;-72
2022/09/07 09:07:18;;;;;;;5.10;3.42;;;;;;;22.95;42.48;99924.84;5024453;28;20102;-74
2022/09/07 09:10:02;;;;;;;6.63;3.30;;;;;;;23.08;42.17;99933.78;5030933;28;20096;-74
2022/09/07 09:13:05;;;;;;;5.82;3.72;;;;;;;23.39;42.22;99933.34;5028386;28;20038;-76
2022/09/07 09:15:42;;;;;;;7.85;3.90;;;;;;;23.39;41.74;99930.50;5029293;28;20496;-74
2022/09/07 09:18:46;;;;;;;12.27;3.58;;;;;;;23.45;42.21;99928.81;5031673;28;20025;-74
2022/09/07 09:21:15;;;;;;;5.55;3.78;;;;;;;23.65;41.53;99923.47;4958475;28;20084;-74
2022/09/07 09:23:43;;;;;;;3.92;3.53;;;;;;;23.78;41.88;99911.59;5022461;28;20449;-73
2022/09/07 09:26:16;;;;;;;5.13;3.55;;;;;;;23.79;41.59;99911.16;5015737;28;20087;-74
2022/09/07 09:28:42;;;;;;;6.95;3.72;;;;;;;24.02;41.66;99914.72;5031219;28;20377;-73
2022/09/07 09:31:24;;;;;;;9.93;4.15;;;;;;;23.98;41.08;99909.81;5008594;28;20084;-73
2022/09/07 09:34:28;;;;;;;5.15;3.25;;;;;;;23.82;40.65;99898.88;5030716;28;20108;-71
2022/09/07 09:36:55;;;;;;;4.70;3.80;;;;;;;23.94;41.22;99897.63;4965484;28;20038;-73
2022/09/07 09:39:37;;;;;;;5.05;3.60;;;;;;;24.16;41.11;99894.66;4969063;28;20029;-73
2022/09/07 09:42:37;;;;;;;7.50;3.90;;;;;;;24.37;39.92;99895.72;5004591;28;20045;-73
2022/09/07 09:45:19;;;;;;;8.02;3.60;;;;;;;24.34;40.44;99893.72;4991614;28;20054;-74
2022/09/07 09:47:50;;;;;;;8.25;4.07;;;;;;;24.39;40.15;99894.06;5029427;28;20140;-73
2022/09/07 09:50:36;;;;;;;5.45;3.78;;;;;;;24.39;41.15;99884.69;5025924;28;20083;-73
2022/09/07 09:53:04;;;;;;;5.57;3.78;;;;;;;24.44;40.86;99881.38;5032597;28;20017;-73
2022/09/07 09:55:35;;;;;;;6.75;3.63;;;;;;;24.51;40.31;99884.19;5014817;28;20443;-74
2022/09/07 09:58:06;;;;;;;9.07;4.40;;;;;;;24.65;39.89;99879.59;5026527;28;20025;-74
2022/09/07 10:00:33;;;;;;;6.97;4.72;;;;;;;24.56;39.58;99876.38;5029917;28;20353;-73
2022/09/07 10:03:17;;;;;;;15.98;3.92;;;;;;;24.59;39.86;99875.53;5028533;28;20039;-74
2022/09/07 10:05:45;;;;;;;14.73;4.05;;;;;;;24.92;38.70;99871.19;5009495;28;20112;-73
2022/09/07 10:08:27;;;;;;;7.38;3.80;;;;;;;24.87;38.97;99862.25;5003523;28;20061;-73
2022/09/07 10:11:05;;;;;;;6.78;3.90;;;;;;;24.99;39.40;99866.59;5031900;28;20021;-74
2022/09/07 10:13:34;;;;;;;6.70;3.90;;;;;;;24.85;40.45;99856.13;5015375;28;20032;-73
2022/09/07 10:16:10;;;;;;;11.00;4.22;;;;;;;25.07;39.92;99859.59;5015047;28;20021;-73
2022/09/07 10:18:52;;;;;;;8.43;3.80;;;;;;;25.15;39.01;99846.78;5033014;28;20396;-74
2022/09/07 10:21:23;;;;;;;7.28;3.72;;;;;;;25.28;37.94;99852.78;5032650;28;20025;-72
2022/09/07 10:23:53;;;;;;;9.50;3.67;;;;;;;25.36;37.71;99842.88;5014591;28;20056;-71
2022/09/07 10:26:26;;;;;;;6.63;3.70;;;;;;;25.56;37.62;99838.56;5030684;28;20059;-72
2022/09/07 10:29:06;;;;;;;6.22;3.40;;;;;;;25.62;37.66;99826.22;5017087;28;20061;-72
2022/09/07 10:31:37;;;;;;;9.77;3.80;;;;;;;25.85;37.57;99827.53;5032678;28;20120;-72
2022/09/07 10:34:21;;;;;;;5.43;4.15;;;;;;;25.83;36.79;99834.91;5028577;28;20025;-72
2022/09/07 10:36:52;;;;;;;5.57;3.40;;;;;;;25.99;37.15;99837.13;5029626;28;20117;-72
2022/09/07 10:39:30;;;;;;;10.43;3.95;;;;;;;25.76;36.83;99830.94;5032839;28;20440;-72
2022/09/07 10:42:09;;;;;;;21.42;4.40;;;;;;;25.67;36.61;99826.97;5028569;28;22023;-72
2022/09/07 10:44:59;;;;;;;6.82;4.07;;;;;;;25.86;37.19;99823.41;5029122;28;20029;-72
2022/09/07 10:47:49;;;;;;;6.68;3.95;;;;;;;25.98;36.48;99816.25;5011865;28;20084;-72
2022/09/07 10:50:43;;;;;;;6.30;3.83;;;;;;;26.07;36.73;99810.78;5021829;28;20029;-72
2022/09/07 10:53:33;;;;;;;7.93;4.55;;;;;;;26.10;35.60;99809.13;5024925;28;20179;-72
2022/09/07 10:56:04;;;;;;;8.13;5.00;;;;;;;26.01;35.75;99806.00;5030597;28;20033;-72
2022/09/07 10:58:58;;;;;;;7.75;5.10;;;;;;;25.73;36.35;99805.19;5014218;28;20029;-72
2022/09/07 11:01:33;;;;;;;5.93;4.28;;;;;;;26.14;36.42;99803.34;5023909;28;20055;-72
2022/09/07 11:04:25;;;;;;;8.73;4.47;;;;;;;26.27;35.04;99795.78;5029847;28;20033;-72
2022/09/07 11:07:00;;;;;;;9.27;4.47;;;;;;;26.47;35.39;99798.69;5031879;28;20028;-72
2022/09/07 11:09:55;;;;;;;7.75;5.03;;;;;;;26.55;35.13;99798.56;5032046;28;20033;-72
2022/09/07 11:12:32;;;;;;;7.75;4.53;;;;;;;26.55;35.48;99787.09;4987836;28;20037;-72
2022/09/07 11:15:13;;;;;;;12.93;5.80;;;;;;;26.57;35.65;99796.06;5012496;28;20492;-73
2022/09/07 11:17:53;;;;;;;7.45;4.30;;;;;;;26.61;34.83;99785.34;5019280;28;20029;-72
2022/09/07 11:20:41;;;;;;;6.32;4.63;;;;;;;26.90;34.93;99787.66;5010476;28;20472;-73
2022/09/07 11:23:18;;;;;;;6.68;4.25;;;;;;;27.05;33.97;99785.34;5028457;28;20029;-74
2022/09/07 11:25:56;;;;;;;6.25;3.85;;;;;;;27.07;34.03;99787.78;5011805;28;20606;-74
2022/09/07 11:28:27;;;;;;;6.05;3.78;;;;;;;27.11;33.83;99786.44;5023605;28;20029;-74
2022/09/07 11:30:58;;;;;;;9.38;4.20;;;;;;;26.88;33.43;99775.84;5022553;28;20052;-76
2022/09/07 11:33:39;;;;;;;5.72;3.65;;;;;;;26.97;33.40;99773.19;4997826;28;20036;-71
2022/09/07 11:36:08;;;;;;;9.38;3.30;;;;;;;27.12;33.82;99772.88;5023006;28;20033;-70
2022/09/07 11:38:44;;;;;;;5.22;3.90;;;;;;;27.29;32.67;99759.41;5017718;28;20465;-72
2022/09/07 11:41:24;;;;;;;6.10;3.20;;;;;;;27.17;32.27;99763.78;5028838;28;20129;-72
2022/09/07 11:44:01;;;;;;;8.25;3.53;;;;;;;27.37;32.53;99757.19;5030390;28;20508;-73
2022/09/07 11:46:45;;;;;;;5.07;3.63;;;;;;;27.40;31.22;99741.97;5030900;28;20309;-72
2022/09/07 11:49:23;;;;;;;5.28;3.50;;;;;;;27.69;32.42;99747.06;5010937;28;20124;-73
2022/09/07 11:52:01;;;;;;;5.15;3.50;;;;;;;27.63;31.54;99737.34;5028450;28;20577;-72